KLCH/LCH METAR and TAF weather

Enter ICAO airport designator
Station Type Date Time Source
KLCH METAR 2021/04/14 19:35 UTC NOAA

KLCH 141935Z 05013KT 6SM BR BKN008 OVC015 21/19 A2997 RMK AO2 LTG DSNT NE AND NW RAB08E28 CIG 006V012 P0001 T02060194


Station Type Date Time Source
KLCH Decoded METAR 2021/04/14 19:35 UTC NOAA

LAKE CHARLES REGIONAL AIRPORT , LA, United States (KLCH) 30-12N 093-23W 3M
Apr 14, 2021 - 03:35 PM EDT / 2021.04.14 1935 UTC
Wind: from the NE (050 degrees) at 15 MPH (13 KT):0
Visibility: 6 mile(s):0
Sky conditions: overcast
Weather: mist; Lightning observed
Precipitation last hour: 0.01 inches
Temperature: 69.1 F (20.6 C)
Dew Point: 66.9 F (19.4 C)
Relative Humidity: 92%
Pressure (altimeter): 29.97 in. Hg (1014 hPa)
ob: KLCH 141935Z 05013KT 6SM BR BKN008 OVC015 21/19 A2997 RMK AO2 LTG DSNT NE AND NW RAB08E28 CIG 006V012 P0001 T02060194
cycle: 19

Station Type Date Time Source
KLCH TAF 2021/04/14 18:39 UTC NOAA

TAF KLCH 141737Z 1418/1518 VRB06KT P6SM VCTS SCT025CB OVC035
TEMPO 1418/1421 4SM TSRA BKN025CB OVC035
FM142200 34008KT P6SM VCTS OVC015CB
FM150200 05006KT 6SM BR OVC008
FM150600 04008KT 4SM BR OVC004 PROB30 1508/1512 SHRA
FM151200 04014G20KT 4SM SHRA OVC008

Example: see airport list